Midnight Dream — 3EKF5 — position and weather

sailwx.info

Track history (hours):
 
Tides and Currents Weather Stations Pressure Air Temp Water Temp Dewpoint Dewpoint Depression Visibility Wind Speed Wind Dir Waves Ship Positions

Midnight Dream

Last reported at 2016-Apr-28 17:13 UTC. Time now 2016-Apr-29 17:48 UTC.
Position N 18°24' W 064°36'.

Length 90 m; draft 4.5 m.

Type: Cargo ship. MMSI: 372708000.

Date/timePositionNaut miles runAvg speedWind from/ knotsBaromVisibWave heightAir tempDewpointWater temp
2016-Apr-28 17:13N 18°24' W 064°36'0 0.0
2016-Apr-28 15:19N 18°24' W 064°36'0 0.0
2016-Apr-28 12:25N 18°24' W 064°36'0 0.0
2016-Apr-28 10:22N 18°24' W 064°36'0 0.0
2016-Apr-28 09:31N 18°24' W 064°36'0 0.0
2016-Apr-28 08:31N 18°24' W 064°36'0 0.0
2016-Apr-28 07:25N 18°24' W 064°36'0 0.0
2016-Apr-28 04:18N 18°24' W 064°36'0 0.0
2016-Apr-28 03:03N 18°24' W 064°36'0 0.0
2016-Apr-28 02:30N 18°24' W 064°36'0 0.0
2016-Apr-28 01:30N 18°24' W 064°36'0 0.0
2016-Apr-28 00:06N 18°24' W 064°36'0 0.0
2016-Apr-27 23:24N 18°24' W 064°36'0 0.0
2016-Apr-27 22:24N 18°24' W 064°36'0 0.0
2016-Apr-27 21:33N 18°24' W 064°36'0 0.0
2016-Apr-27 20:27N 18°24' W 064°36'0 0.0
2016-Apr-27 19:33N 18°24' W 064°36'0 0.0
2016-Apr-27 15:24N 18°24' W 064°36'0 0.0
2016-Apr-27 13:18N 18°24' W 064°36'0 0.0
2016-Apr-27 12:30N 18°24' W 064°36'0 0.0
2016-Apr-27 11:33N 18°24' W 064°36'0 0.0
2016-Apr-27 10:27N 18°24' W 064°36'0 0.0
2016-Apr-27 08:24N 18°24' W 064°36'0 0.0
2016-Apr-27 07:27N 18°24' W 064°36'0 0.0
2016-Apr-27 06:30N 18°24' W 064°36'7610.8
2016-Apr-26 23:26N 17°51' W 063°24'51 9.9
2016-Apr-26 18:17N 17°17' W 062°43'39 3.8
2016-Apr-26 08:12N 17°42' W 063°14'9911.4
2016-Apr-25 23:28N 18°17' W 064°52'1 0.2
2016-Apr-25 19:33N 18°17' W 064°51'1412.5
2016-Apr-25 18:27N 18°21' W 064°38'0 0.1
2016-Apr-25 14:34N 18°21' W 064°37'1313.1
2016-Apr-25 13:33N 18°17' W 064°50'13 0.5
2016-Apr-24 09:33N 18°22' W 064°37'3 0.1
2016-Apr-22 17:04N 18°25' W 064°36'1 1.0
2016-Apr-22 16:26N 18°24' W 064°36'0 0.0
2016-Apr-22 15:32N 18°24' W 064°36'0 0.0
2016-Apr-22 14:32N 18°24' W 064°36'0 0.0
2016-Apr-22 13:32N 18°24' W 064°36'0 0.0
2016-Apr-22 12:32N 18°24' W 064°36'0 0.0
2016-Apr-22 11:32N 18°24' W 064°36'0 0.0
2016-Apr-22 10:32N 18°24' W 064°36'0 0.0
2016-Apr-22 09:26N 18°24' W 064°36'0 0.0
2016-Apr-22 07:29N 18°24' W 064°36'0 0.0
2016-Apr-22 06:32N 18°24' W 064°36'0 0.0
2016-Apr-22 05:32N 18°24' W 064°36'0 0.0
2016-Apr-22 04:31N 18°24' W 064°36'0 0.0
2016-Apr-22 03:28N 18°24' W 064°36'0 0.0
2016-Apr-22 02:31N 18°24' W 064°36'0 0.0
2016-Apr-22 01:31N 18°24' W 064°36'0 0.0
2016-Apr-22 00:31N 18°24' W 064°36'0 0.0
2016-Apr-21 23:22N 18°24' W 064°36'0 0.0
2016-Apr-21 22:28N 18°24' W 064°36'0 0.0
2016-Apr-21 21:28N 18°24' W 064°36'0 0.0
2016-Apr-21 20:31N 18°24' W 064°36'0 0.0
2016-Apr-21 19:25N 18°24' W 064°36'0 0.0
2016-Apr-21 18:31N 18°24' W 064°36'0 0.0
2016-Apr-21 17:31N 18°24' W 064°36'0 0.0
2016-Apr-21 16:31N 18°24' W 064°36'0 0.0
2016-Apr-21 15:31N 18°24' W 064°36'0 0.0
2016-Apr-21 14:25N 18°24' W 064°36'0 0.0
2016-Apr-21 13:28N 18°24' W 064°36'0 0.0
2016-Apr-21 12:28N 18°24' W 064°36'0 0.0
2016-Apr-21 11:28N 18°24' W 064°36'0 0.0
2016-Apr-21 10:31N 18°24' W 064°36'0 0.0
2016-Apr-21 09:28N 18°24' W 064°36'0 0.0
2016-Apr-21 08:31N 18°24' W 064°36'0 0.0
2016-Apr-21 07:31N 18°24' W 064°36'0 0.0
2016-Apr-21 06:28N 18°24' W 064°36'0 0.0
2016-Apr-21 05:31N 18°24' W 064°36'0 0.0
2016-Apr-21 04:28N 18°24' W 064°36'0 0.0
2016-Apr-21 03:31N 18°24' W 064°36'0 0.0
2016-Apr-21 02:31N 18°24' W 064°36'0 0.0
2016-Apr-21 01:25N 18°24' W 064°36'0 0.0
2016-Apr-21 00:28N 18°24' W 064°36'0 0.0
2016-Apr-20 23:28N 18°24' W 064°36'0 0.0
2016-Apr-20 22:31N 18°24' W 064°36'0 0.0
2016-Apr-20 21:34N 18°24' W 064°36'0 0.0
2016-Apr-20 20:30N 18°24' W 064°36'0 0.0
2016-Apr-20 19:30N 18°24' W 064°36'0 0.0
2016-Apr-20 18:30N 18°24' W 064°36'0 0.0
2016-Apr-20 17:30N 18°24' W 064°36'0 0.0
2016-Apr-20 16:30N 18°24' W 064°36'0 0.0
2016-Apr-20 15:30N 18°24' W 064°36'0 0.0
2016-Apr-20 14:30N 18°24' W 064°36'0 0.0
2016-Apr-20 13:30N 18°24' W 064°36'0 0.0
2016-Apr-20 12:30N 18°24' W 064°36'0 0.0
2016-Apr-20 11:30N 18°24' W 064°36'0 0.0
2016-Apr-20 10:30N 18°24' W 064°36'0 0.0
2016-Apr-20 09:33N 18°24' W 064°36'77 9.3
2016-Apr-20 01:21N 17°49' W 063°24'10 9.2
2016-Apr-20 00:14N 17°45' W 063°14'6 9.4
2016-Apr-19 23:33N 17°43' W 063°08'41 9.6
2016-Apr-19 19:16N 17°25' W 062°29'7 9.5
2016-Apr-19 18:33N 17°22' W 062°22'10 9.7
2016-Apr-19 17:33N 17°18' W 062°13'9 9.5
2016-Apr-19 16:33N 17°13' W 062°04'9 9.5
2016-Apr-19 15:33N 17°09' W 061°55'4 4.2
2016-Apr-19 14:32N 17°07' W 061°51'0 0.0
2016-Apr-19 13:32N 17°07' W 061°51'0 0.0
2016-Apr-19 12:32N 17°07' W 061°51'0 0.0
2016-Apr-19 11:32N 17°07' W 061°51'2 1.6
2016-Apr-19 10:33N 17°08' W 061°53'1 1.4
2016-Apr-19 09:30N 17°09' W 061°54'0 0.0
2016-Apr-19 08:24N 17°09' W 061°54'0 0.0
2016-Apr-19 07:33N 17°09' W 061°54'0 0.0
2016-Apr-19 06:33N 17°09' W 061°54'0 0.0
2016-Apr-19 05:33N 17°09' W 061°54'0 0.0
2016-Apr-19 04:33N 17°09' W 061°54'0 0.0
2016-Apr-19 03:33N 17°09' W 061°54'0 0.0
2016-Apr-19 02:33N 17°09' W 061°54'0 0.0
2016-Apr-19 01:30N 17°09' W 061°54'0 0.0
2016-Apr-19 00:33N 17°09' W 061°54'0 0.0
2016-Apr-18 23:33N 17°09' W 061°54'7 7.5
2016-Apr-18 22:33N 17°09' W 062°02'  
Track history (hours):
 
Tides and Currents Weather Stations Pressure Air Temp Water Temp Dewpoint Dewpoint Depression Visibility Wind Speed Wind Dir Waves Ship Positions

Midnight Dream

Last reported at 2016-Apr-28 17:13 UTC. Time now 2016-Apr-29 17:48 UTC.
Position N 18°24' W 064°36'.

Length 90 m; draft 4.5 m.

Type: Cargo ship. MMSI: 372708000.

Date/timePositionNaut miles runAvg speedWind from/ knotsBaromVisibWave heightAir tempDewpointWater temp
2016-Apr-28 17:13N 18°24' W 064°36'0 0.0
2016-Apr-28 15:19N 18°24' W 064°36'0 0.0
2016-Apr-28 12:25N 18°24' W 064°36'0 0.0
2016-Apr-28 10:22N 18°24' W 064°36'0 0.0
2016-Apr-28 09:31N 18°24' W 064°36'0 0.0
2016-Apr-28 08:31N 18°24' W 064°36'0 0.0
2016-Apr-28 07:25N 18°24' W 064°36'0 0.0
2016-Apr-28 04:18N 18°24' W 064°36'0 0.0
2016-Apr-28 03:03N 18°24' W 064°36'0 0.0
2016-Apr-28 02:30N 18°24' W 064°36'0 0.0
2016-Apr-28 01:30N 18°24' W 064°36'0 0.0
2016-Apr-28 00:06N 18°24' W 064°36'0 0.0
2016-Apr-27 23:24N 18°24' W 064°36'0 0.0
2016-Apr-27 22:24N 18°24' W 064°36'0 0.0
2016-Apr-27 21:33N 18°24' W 064°36'0 0.0
2016-Apr-27 20:27N 18°24' W 064°36'0 0.0
2016-Apr-27 19:33N 18°24' W 064°36'0 0.0
2016-Apr-27 15:24N 18°24' W 064°36'0 0.0
2016-Apr-27 13:18N 18°24' W 064°36'0 0.0
2016-Apr-27 12:30N 18°24' W 064°36'0 0.0
2016-Apr-27 11:33N 18°24' W 064°36'0 0.0
2016-Apr-27 10:27N 18°24' W 064°36'0 0.0
2016-Apr-27 08:24N 18°24' W 064°36'0 0.0
2016-Apr-27 07:27N 18°24' W 064°36'0 0.0
2016-Apr-27 06:30N 18°24' W 064°36'7610.8
2016-Apr-26 23:26N 17°51' W 063°24'51 9.9
2016-Apr-26 18:17N 17°17' W 062°43'39 3.8
2016-Apr-26 08:12N 17°42' W 063°14'9911.4
2016-Apr-25 23:28N 18°17' W 064°52'1 0.2
2016-Apr-25 19:33N 18°17' W 064°51'1412.5
2016-Apr-25 18:27N 18°21' W 064°38'0 0.1
2016-Apr-25 14:34N 18°21' W 064°37'1313.1
2016-Apr-25 13:33N 18°17' W 064°50'13 0.5
2016-Apr-24 09:33N 18°22' W 064°37'3 0.1
2016-Apr-22 17:04N 18°25' W 064°36'1 1.0
2016-Apr-22 16:26N 18°24' W 064°36'0 0.0
2016-Apr-22 15:32N 18°24' W 064°36'0 0.0
2016-Apr-22 14:32N 18°24' W 064°36'0 0.0
2016-Apr-22 13:32N 18°24' W 064°36'0 0.0
2016-Apr-22 12:32N 18°24' W 064°36'0 0.0
2016-Apr-22 11:32N 18°24' W 064°36'0 0.0
2016-Apr-22 10:32N 18°24' W 064°36'0 0.0
2016-Apr-22 09:26N 18°24' W 064°36'0 0.0
2016-Apr-22 07:29N 18°24' W 064°36'0 0.0
2016-Apr-22 06:32N 18°24' W 064°36'0 0.0
2016-Apr-22 05:32N 18°24' W 064°36'0 0.0
2016-Apr-22 04:31N 18°24' W 064°36'0 0.0
2016-Apr-22 03:28N 18°24' W 064°36'0 0.0
2016-Apr-22 02:31N 18°24' W 064°36'0 0.0
2016-Apr-22 01:31N 18°24' W 064°36'0 0.0
2016-Apr-22 00:31N 18°24' W 064°36'0 0.0
2016-Apr-21 23:22N 18°24' W 064°36'0 0.0
2016-Apr-21 22:28N 18°24' W 064°36'0 0.0
2016-Apr-21 21:28N 18°24' W 064°36'0 0.0
2016-Apr-21 20:31N 18°24' W 064°36'0 0.0
2016-Apr-21 19:25N 18°24' W 064°36'0 0.0
2016-Apr-21 18:31N 18°24' W 064°36'0 0.0
2016-Apr-21 17:31N 18°24' W 064°36'0 0.0
2016-Apr-21 16:31N 18°24' W 064°36'0 0.0
2016-Apr-21 15:31N 18°24' W 064°36'0 0.0
2016-Apr-21 14:25N 18°24' W 064°36'0 0.0
2016-Apr-21 13:28N 18°24' W 064°36'0 0.0
2016-Apr-21 12:28N 18°24' W 064°36'0 0.0
2016-Apr-21 11:28N 18°24' W 064°36'0 0.0
2016-Apr-21 10:31N 18°24' W 064°36'0 0.0
2016-Apr-21 09:28N 18°24' W 064°36'0 0.0
2016-Apr-21 08:31N 18°24' W 064°36'0 0.0
2016-Apr-21 07:31N 18°24' W 064°36'0 0.0
2016-Apr-21 06:28N 18°24' W 064°36'0 0.0
2016-Apr-21 05:31N 18°24' W 064°36'0 0.0
2016-Apr-21 04:28N 18°24' W 064°36'0 0.0
2016-Apr-21 03:31N 18°24' W 064°36'0 0.0
2016-Apr-21 02:31N 18°24' W 064°36'0 0.0
2016-Apr-21 01:25N 18°24' W 064°36'0 0.0
2016-Apr-21 00:28N 18°24' W 064°36'0 0.0
2016-Apr-20 23:28N 18°24' W 064°36'0 0.0
2016-Apr-20 22:31N 18°24' W 064°36'0 0.0
2016-Apr-20 21:34N 18°24' W 064°36'0 0.0
2016-Apr-20 20:30N 18°24' W 064°36'0 0.0
2016-Apr-20 19:30N 18°24' W 064°36'0 0.0
2016-Apr-20 18:30N 18°24' W 064°36'0 0.0
2016-Apr-20 17:30N 18°24' W 064°36'0 0.0
2016-Apr-20 16:30N 18°24' W 064°36'0 0.0
2016-Apr-20 15:30N 18°24' W 064°36'0 0.0
2016-Apr-20 14:30N 18°24' W 064°36'0 0.0
2016-Apr-20 13:30N 18°24' W 064°36'0 0.0
2016-Apr-20 12:30N 18°24' W 064°36'0 0.0
2016-Apr-20 11:30N 18°24' W 064°36'0 0.0
2016-Apr-20 10:30N 18°24' W 064°36'0 0.0
2016-Apr-20 09:33N 18°24' W 064°36'77 9.3
2016-Apr-20 01:21N 17°49' W 063°24'10 9.2
2016-Apr-20 00:14N 17°45' W 063°14'6 9.4
2016-Apr-19 23:33N 17°43' W 063°08'41 9.6
2016-Apr-19 19:16N 17°25' W 062°29'7 9.5
2016-Apr-19 18:33N 17°22' W 062°22'10 9.7
2016-Apr-19 17:33N 17°18' W 062°13'9 9.5
2016-Apr-19 16:33N 17°13' W 062°04'9 9.5
2016-Apr-19 15:33N 17°09' W 061°55'4 4.2
2016-Apr-19 14:32N 17°07' W 061°51'0 0.0
2016-Apr-19 13:32N 17°07' W 061°51'0 0.0
2016-Apr-19 12:32N 17°07' W 061°51'0 0.0
2016-Apr-19 11:32N 17°07' W 061°51'2 1.6
2016-Apr-19 10:33N 17°08' W 061°53'1 1.4
2016-Apr-19 09:30N 17°09' W 061°54'0 0.0
2016-Apr-19 08:24N 17°09' W 061°54'0 0.0
2016-Apr-19 07:33N 17°09' W 061°54'0 0.0
2016-Apr-19 06:33N 17°09' W 061°54'0 0.0
2016-Apr-19 05:33N 17°09' W 061°54'0 0.0
2016-Apr-19 04:33N 17°09' W 061°54'0 0.0
2016-Apr-19 03:33N 17°09' W 061°54'0 0.0
2016-Apr-19 02:33N 17°09' W 061°54'0 0.0
2016-Apr-19 01:30N 17°09' W 061°54'0 0.0
2016-Apr-19 00:33N 17°09' W 061°54'0 0.0
2016-Apr-18 23:33N 17°09' W 061°54'7 7.5
2016-Apr-18 22:33N 17°09' W 062°02'  

Dump ship's entire track history